Time;durP1;ratioP1;P1;durP2;ratioP2;P2;SDS_P1;SDS_P2;PMS_P1;PMS_P2;Temp;Humidity;BMP_temperature;BMP_pressure;BME280_temperature;BME280_humidity;BME280_pressure;Samples;Min_cycle;Max_cycle;Signal;HPM_P1;HPM_P2
2023/10/13 00:00:40;;;;;;;2.20;0.93;;;;;;;;;;4994563;28;20386;-87
2023/10/13 00:03:18;;;;;;;2.55;1.23;;;;;;;;;;4993325;28;20058;-84
2023/10/13 00:05:52;;;;;;;2.13;1.00;;;;;;;;;;4995473;28;20054;-84
2023/10/13 00:08:23;;;;;;;1.15;0.63;;;;;;;;;;4993640;28;20053;-83
2023/10/13 00:10:59;;;;;;;3.35;1.30;;;;;;;;;;4995036;28;20054;-86
2023/10/13 00:13:42;;;;;;;1.75;0.73;;;;;;;;;;4993459;28;20050;-86
2023/10/13 00:16:17;;;;;;;2.40;1.27;;;;;;;;;;4995051;28;20054;-86
2023/10/13 00:18:50;;;;;;;3.15;1.02;;;;;;;;;;4993851;28;20046;-87
2023/10/13 00:21:33;;;;;;;1.30;0.80;;;;;;;;;;4992928;28;20050;-86
2023/10/13 00:24:12;;;;;;;2.47;0.90;;;;;;;;;;4993898;28;20050;-85
2023/10/13 00:26:43;;;;;;;3.75;1.33;;;;;;;;;;4994879;28;20405;-84
2023/10/13 00:29:17;;;;;;;2.53;1.15;;;;;;;;;;4994563;28;20049;-84
2023/10/13 00:31:48;;;;;;;3.55;1.02;;;;;;;;;;4992704;28;20050;-86
2023/10/13 00:37:09;;;;;;;2.50;1.30;;;;;;;;;;4993231;28;20054;-86
2023/10/13 00:39:46;;;;;;;1.75;0.90;;;;;;;;;;4993175;28;20050;-85
2023/10/13 00:42:25;;;;;;;3.63;1.00;;;;;;;;;;4992926;28;20053;-85
2023/10/13 00:44:56;;;;;;;1.50;0.95;;;;;;;;;;4993284;28;20054;-88
2023/10/13 00:50:11;;;;;;;1.23;0.52;;;;;;;;;;4992824;28;20046;-85
2023/10/13 00:52:46;;;;;;;1.30;0.82;;;;;;;;;;4994330;28;20482;-86
2023/10/13 00:55:18;;;;;;;1.67;0.80;;;;;;;;;;4994407;28;20046;-86
2023/10/13 00:57:54;;;;;;;0.90;0.40;;;;;;;;;;4992347;28;20046;-88
2023/10/13 01:00:28;;;;;;;1.58;0.88;;;;;;;;;;4992747;28;20046;-87
2023/10/13 01:03:08;;;;;;;1.42;0.82;;;;;;;;;;4991704;28;20046;-87
2023/10/13 01:05:39;;;;;;;1.58;0.65;;;;;;;;;;4994006;28;20042;-87
2023/10/13 01:08:11;;;;;;;4.63;0.90;;;;;;;;;;4992525;28;20061;-87
2023/10/13 01:10:42;;;;;;;;;;;;;;;;;;4992981;28;20057;-86
2023/10/13 01:13:12;;;;;;;3.70;1.02;;;;;;;;;;4993695;28;19926;-86
2023/10/13 01:15:42;;;;;;;1.80;1.02;;;;;;;;;;4992302;28;20495;-85
2023/10/13 01:18:13;;;;;;;3.40;1.10;;;;;;;;;;4992075;28;20498;-86
2023/10/13 01:20:45;;;;;;;1.77;1.02;;;;;;;;;;4991981;28;20050;-86
2023/10/13 01:23:18;;;;;;;3.08;0.95;;;;;;;;;;4976284;28;20058;-86
2023/10/13 01:25:49;;;;;;;2.15;0.90;;;;;;;;;;4991544;28;20057;-85
2023/10/13 01:28:21;;;;;;;1.42;0.98;;;;;;;;;;4993243;28;20072;-87
2023/10/13 01:30:53;;;;;;;3.53;1.05;;;;;;;;;;4991582;28;20046;-87
2023/10/13 01:33:26;;;;;;;3.08;0.90;;;;;;;;;;4991553;28;20052;-86
2023/10/13 01:36:06;;;;;;;1.25;0.63;;;;;;;;;;4991710;28;20050;-85
2023/10/13 01:38:38;;;;;;;0.82;0.60;;;;;;;;;;4991900;28;20054;-84
2023/10/13 01:41:09;;;;;;;2.78;1.02;;;;;;;;;;4991785;28;20050;-83
2023/10/13 01:43:39;;;;;;;1.23;0.73;;;;;;;;;;4991388;28;20050;-84
2023/10/13 01:46:13;;;;;;;2.42;0.93;;;;;;;;;;4991685;28;20497;-84
2023/10/13 01:48:46;;;;;;;3.03;1.20;;;;;;;;;;4991943;28;20485;-85
2023/10/13 01:51:16;;;;;;;2.75;0.95;;;;;;;;;;4975213;28;20050;-84
2023/10/13 01:53:56;;;;;;;1.25;0.65;;;;;;;;;;4989334;28;20382;-88
2023/10/13 01:56:30;;;;;;;1.85;0.75;;;;;;;;;;4984002;28;20058;-85
2023/10/13 01:59:00;;;;;;;1.65;0.93;;;;;;;;;;4984975;28;20050;-86
2023/10/13 02:01:35;;;;;;;1.67;0.60;;;;;;;;;;4981710;28;20051;-84
2023/10/13 02:04:06;;;;;;;2.10;1.40;;;;;;;;;;4980598;28;20043;-85
2023/10/13 02:06:37;;;;;;;2.17;1.10;;;;;;;;;;4982965;28;20530;-84
2023/10/13 02:12:10;;;;;;;2.33;1.10;;;;;;;;;;4983163;28;20055;-85
2023/10/13 02:14:42;;;;;;;3.00;1.25;;;;;;;;;;4991198;28;20489;-85
2023/10/13 02:17:12;;;;;;;2.20;1.20;;;;;;;;;;4990853;28;20050;-85
2023/10/13 02:19:46;;;;;;;3.55;0.95;;;;;;;;;;4992957;28;20057;-85
2023/10/13 02:22:29;;;;;;;2.00;0.95;;;;;;;;;;4991399;28;20177;-86
2023/10/13 02:25:05;;;;;;;4.00;1.52;;;;;;;;;;4992577;28;20054;-85
2023/10/13 02:27:40;;;;;;;2.90;1.10;;;;;;;;;;4993896;28;20046;-84
2023/10/13 02:30:13;;;;;;;1.95;0.88;;;;;;;;;;4993305;28;20046;-85
2023/10/13 02:32:44;;;;;;;1.48;1.10;;;;;;;;;;4994494;28;20055;-85
2023/10/13 02:35:17;;;;;;;3.08;0.85;;;;;;;;;;4993049;28;20057;-85
2023/10/13 02:37:54;;;;;;;3.08;1.23;;;;;;;;;;4993029;28;20409;-85
2023/10/13 02:40:25;;;;;;;1.33;0.75;;;;;;;;;;4994829;28;20485;-84
2023/10/13 02:42:55;;;;;;;3.58;1.35;;;;;;;;;;4994420;28;20042;-86
2023/10/13 02:45:25;;;;;;;3.63;1.02;;;;;;;;;;4992444;28;20057;-85
2023/10/13 02:48:12;;;;;;;2.40;1.13;;;;;;;;;;5013994;28;20034;-85
2023/10/13 02:50:46;;;;;;;2.00;1.33;;;;;;;;;;5018553;28;20034;-84
2023/10/13 02:53:18;;;;;;;2.08;0.98;;;;;;;;;;5018489;28;20037;-85
2023/10/13 02:55:53;;;;;;;3.83;1.15;;;;;;;;;;5017708;28;20018;-84
2023/10/13 02:58:23;;;;;;;2.30;1.17;;;;;;;;;;5015681;28;20045;-84
2023/10/13 03:00:56;;;;;;;2.72;1.27;;;;;;;;;;4995515;28;20049;-85
2023/10/13 03:03:29;;;;;;;2.28;1.20;;;;;;;;;;4994743;28;20047;-84
2023/10/13 03:06:00;;;;;;;4.93;1.00;;;;;;;;;;4995482;28;20042;-85
2023/10/13 03:08:31;;;;;;;2.25;1.02;;;;;;;;;;4994146;28;20050;-84
2023/10/13 03:11:05;;;;;;;2.97;0.80;;;;;;;;;;4994451;28;20050;-83
2023/10/13 03:13:36;;;;;;;2.03;1.02;;;;;;;;;;4992377;28;20398;-85
2023/10/13 03:16:19;;;;;;;2.10;0.90;;;;;;;;;;4994079;28;20053;-85
2023/10/13 03:18:56;;;;;;;1.60;0.88;;;;;;;;;;4992749;28;20050;-85
2023/10/13 03:21:30;;;;;;;2.28;1.23;;;;;;;;;;4993852;28;20058;-84
2023/10/13 03:24:06;;;;;;;2.97;1.20;;;;;;;;;;4992958;28;20042;-86
2023/10/13 03:26:37;;;;;;;2.45;1.20;;;;;;;;;;4994361;28;20046;-84
2023/10/13 03:29:09;;;;;;;10.00;1.63;;;;;;;;;;4994064;28;20385;-84
2023/10/13 03:31:40;;;;;;;2.58;0.90;;;;;;;;;;4991675;28;20050;-84
2023/10/13 03:34:12;;;;;;;4.40;1.00;;;;;;;;;;4993848;28;20476;-84
2023/10/13 03:36:57;;;;;;;3.25;0.75;;;;;;;;;;4994182;28;20051;-84
2023/10/13 03:39:30;;;;;;;;;;;;;;;;;;4993238;28;20046;-85
2023/10/13 03:42:05;;;;;;;3.42;0.90;;;;;;;;;;4993963;28;19922;-85
2023/10/13 03:44:38;;;;;;;1.70;0.82;;;;;;;;;;4994106;28;20409;-85
2023/10/13 03:47:17;;;;;;;3.10;1.05;;;;;;;;;;4991405;28;20051;-86
2023/10/13 03:49:51;;;;;;;2.72;1.00;;;;;;;;;;4993651;28;20038;-84
2023/10/13 03:52:22;;;;;;;2.38;1.00;;;;;;;;;;4991966;28;20042;-85
2023/10/13 03:54:52;;;;;;;1.70;0.73;;;;;;;;;;4991633;28;20046;-85
2023/10/13 03:57:25;;;;;;;2.08;0.90;;;;;;;;;;4993970;28;20045;-85
2023/10/13 03:59:57;;;;;;;1.52;0.68;;;;;;;;;;4993928;28;20043;-85
2023/10/13 04:02:27;;;;;;;3.05;1.00;;;;;;;;;;4993934;28;20502;-84
2023/10/13 04:05:07;;;;;;;2.40;1.15;;;;;;;;;;4991426;28;20046;-85
2023/10/13 04:08:08;;;;;;;2.22;0.90;;;;;;;;;;5000247;28;20493;-85
2023/10/13 04:19:07;;;;;;;2.40;0.98;;;;;;;;;;4982343;28;20066;-84
2023/10/13 04:21:42;;;;;;;2.20;0.90;;;;;;;;;;4995309;28;20046;-84
2023/10/13 04:32:30;;;;;;;1.35;0.52;;;;;;;;;;4996654;28;20393;-84
2023/10/13 04:35:20;;;;;;;3.67;0.90;;;;;;;;;;4996835;28;20057;-85
2023/10/13 04:37:53;;;;;;;2.28;1.13;;;;;;;;;;4995239;28;20046;-85
2023/10/13 04:40:26;;;;;;;1.77;0.88;;;;;;;;;;4996788;28;20490;-85
2023/10/13 04:42:57;;;;;;;6.43;1.15;;;;;;;;;;4996847;28;20042;-85
2023/10/13 04:45:38;;;;;;;3.83;1.10;;;;;;;;;;4996724;28;20038;-85
2023/10/13 04:51:34;;;;;;;4.82;1.25;;;;;;;;;;4996371;28;20050;-85
2023/10/13 04:59:17;;;;;;;2.65;0.93;;;;;;;;;;4996623;28;20046;-85
2023/10/13 05:02:42;;;;;;;3.15;0.90;;;;;;;;;;4996312;28;20042;-87
2023/10/13 05:45:24;;;;;;;1.23;0.70;;;;;;;;;;4995499;28;20042;-86
2023/10/13 06:30:47;;;;;;;2.47;0.80;;;;;;;;;;4993063;28;20494;-87
2023/10/13 06:33:17;;;;;;;1.02;0.40;;;;;;;;;;4993355;28;20500;-86
2023/10/13 06:35:51;;;;;;;1.45;0.40;;;;;;;;;;4994213;28;20050;-86
2023/10/13 06:38:21;;;;;;;2.28;0.90;;;;;;;;;;4994764;28;20054;-86
2023/10/13 06:40:52;;;;;;;2.42;0.60;;;;;;;;;;4994788;28;20441;-86
2023/10/13 06:43:23;;;;;;;2.05;0.70;;;;;;;;;;4994848;28;20069;-86
2023/10/13 06:46:03;;;;;;;1.27;0.32;;;;;;;;;;4994403;28;20077;-86
2023/10/13 06:48:34;;;;;;;2.30;0.60;;;;;;;;;;4993955;28;20042;-86
2023/10/13 06:51:17;;;;;;;1.25;0.70;;;;;;;;;;4994015;28;20038;-85
2023/10/13 06:53:49;;;;;;;4.03;0.60;;;;;;;;;;4994762;28;20046;-87
2023/10/13 06:56:22;;;;;;;1.90;0.63;;;;;;;;;;4994608;28;20381;-86
2023/10/13 06:58:59;;;;;;;1.60;0.60;;;;;;;;;;4994431;28;20051;-85
2023/10/13 07:01:29;;;;;;;2.38;0.50;;;;;;;;;;4993076;28;20047;-85
2023/10/13 07:04:02;;;;;;;2.35;0.80;;;;;;;;;;4992106;28;20043;-85
2023/10/13 07:06:33;;;;;;;2.85;0.60;;;;;;;;;;4994272;28;20047;-85
2023/10/13 07:09:04;;;;;;;2.42;0.45;;;;;;;;;;5006641;28;20027;-85
2023/10/13 07:11:38;;;;;;;0.70;0.50;;;;;;;;;;5018243;28;20034;-85
2023/10/13 07:14:16;;;;;;;1.40;0.45;;;;;;;;;;5017141;28;20045;-85
2023/10/13 07:17:00;;;;;;;5.90;0.60;;;;;;;;;;5018114;28;20049;-84
2023/10/13 07:19:31;;;;;;;1.48;0.50;;;;;;;;;;5018331;28;20026;-85
2023/10/13 07:22:21;;;;;;;2.78;1.35;;;;;;;;;;4998573;28;20398;-84
2023/10/13 07:24:52;;;;;;;1.40;0.70;;;;;;;;;;4995213;28;20053;-85
2023/10/13 07:27:23;;;;;;;2.95;0.60;;;;;;;;;;4993297;28;20047;-85
2023/10/13 07:30:14;;;;;;;2.25;0.60;;;;;;;;;;4993635;28;20057;-86
2023/10/13 07:32:49;;;;;;;2.55;0.70;;;;;;;;;;4993847;28;20493;-84
2023/10/13 07:35:26;;;;;;;1.25;0.50;;;;;;;;;;4993714;28;20484;-85
2023/10/13 07:37:59;;;;;;;3.03;0.60;;;;;;;;;;4992629;28;20046;-87
2023/10/13 07:43:00;;;;;;;3.17;0.52;;;;;;;;;;4997769;28;20046;-85
2023/10/13 07:45:37;;;;;;;1.42;0.60;;;;;;;;;;4996984;28;20061;-85
2023/10/13 07:48:27;;;;;;;1.30;0.50;;;;;;;;;;4996089;28;20046;-84
2023/10/13 07:51:03;;;;;;;1.73;0.60;;;;;;;;;;4997605;28;20041;-86
2023/10/13 07:53:40;;;;;;;2.00;0.40;;;;;;;;;;4997585;28;20050;-85
2023/10/13 07:56:16;;;;;;;2.20;0.43;;;;;;;;;;4996666;28;20054;-85
2023/10/13 07:59:00;;;;;;;1.80;0.70;;;;;;;;;;4996351;28;20485;-84
2023/10/13 08:01:34;;;;;;;;;;;;;;;;;;4997846;28;20047;-85
2023/10/13 08:04:09;;;;;;;0.85;0.45;;;;;;;;;;4997669;28;19921;-85
2023/10/13 08:06:43;;;;;;;1.73;0.50;;;;;;;;;;4997247;28;20400;-84
2023/10/13 08:09:30;;;;;;;0.68;0.25;;;;;;;;;;4996174;28;20050;-85
2023/10/13 08:12:00;;;;;;;2.30;0.43;;;;;;;;;;4997020;28;20043;-85
2023/10/13 08:14:33;;;;;;;1.23;0.40;;;;;;;;;;4996942;28;20053;-84
2023/10/13 08:17:12;;;;;;;2.10;0.55;;;;;;;;;;4997271;28;20050;-85
2023/10/13 08:19:45;;;;;;;2.70;0.63;;;;;;;;;;4997225;28;20378;-85
2023/10/13 08:27:36;;;;;;;3.63;0.47;;;;;;;;;;4997005;28;20046;-83
2023/10/13 08:30:29;;;;;;;2.15;0.50;;;;;;;;;;4996985;28;20489;-84
2023/10/13 08:32:58;;;;;;;1.00;0.57;;;;;;;;;;4996882;28;20496;-84
2023/10/13 08:38:04;;;;;;;1.73;0.60;;;;;;;;;;4996943;28;20046;-85
2023/10/13 08:43:50;;;;;;;2.40;0.65;;;;;;;;;;4997172;28;20046;-85
2023/10/13 08:46:26;;;;;;;1.55;0.47;;;;;;;;;;4996851;28;20054;-85
2023/10/13 08:49:05;;;;;;;2.08;0.63;;;;;;;;;;4979697;28;20050;-86
2023/10/13 08:51:49;;;;;;;2.03;0.55;;;;;;;;;;4995159;28;20046;-86
2023/10/13 08:54:33;;;;;;;1.08;0.43;;;;;;;;;;4995934;28;20046;-86
2023/10/13 08:59:53;;;;;;;0.90;0.43;;;;;;;;;;4995655;28;20043;-85
2023/10/13 09:06:00;;;;;;;0.90;0.40;;;;;;;;;;4898235;29;20048;-86
2023/10/13 09:11:26;;;;;;;3.38;0.40;;;;;;;;;;4981089;28;20062;-86
2023/10/13 09:14:03;;;;;;;1.52;0.47;;;;;;;;;;4995426;28;20058;-84
2023/10/13 09:19:11;;;;;;;2.92;0.50;;;;;;;;;;4996209;28;20073;-85
2023/10/13 09:24:21;;;;;;;1.90;0.40;;;;;;;;;;4993947;28;20122;-86
2023/10/13 09:26:55;;;;;;;1.05;0.50;;;;;;;;;;4996277;28;20058;-86
2023/10/13 09:29:28;;;;;;;9.35;0.63;;;;;;;;;;4993540;28;20378;-85
2023/10/13 09:32:03;;;;;;;2.58;0.60;;;;;;;;;;4995880;28;20046;-85
2023/10/13 09:34:34;;;;;;;1.10;0.30;;;;;;;;;;4995794;28;20421;-85
2023/10/13 09:37:06;;;;;;;0.90;0.70;;;;;;;;;;4993967;28;20050;-85
2023/10/13 09:39:44;;;;;;;0.63;0.40;;;;;;;;;;4995645;28;20066;-86
2023/10/13 09:42:18;;;;;;;3.45;0.50;;;;;;;;;;4994573;28;20389;-86
2023/10/13 09:44:55;;;;;;;1.88;0.57;;;;;;;;;;4994272;28;20046;-86
2023/10/13 09:47:36;;;;;;;2.72;0.68;;;;;;;;;;4995584;28;20038;-86
2023/10/13 09:50:24;;;;;;;3.50;0.55;;;;;;;;;;4995371;28;20065;-86
2023/10/13 09:52:56;;;;;;;5.15;0.50;;;;;;;;;;4995536;28;20046;-86
2023/10/13 09:55:33;;;;;;;0.45;0.30;;;;;;;;;;4993645;28;20061;-86
2023/10/13 09:58:13;;;;;;;0.90;0.40;;;;;;;;;;4995879;28;20038;-85
2023/10/13 10:01:07;;;;;;;0.88;0.43;;;;;;;;;;4992955;28;20421;-85
2023/10/13 10:06:51;;;;;;;3.78;0.30;;;;;;;;;;4993785;28;20058;-86
2023/10/13 10:09:43;;;;;;;1.40;0.63;;;;;;;;;;4996806;28;20053;-85
2023/10/13 10:12:47;;;;;;;0.50;0.32;;;;;;;;;;4994208;28;20046;-85
2023/10/13 10:15:35;;;;;;;1.42;0.60;;;;;;;;;;4975201;28;20043;-85
2023/10/13 10:18:05;;;;;;;1.40;0.50;;;;;;;;;;4975604;28;20047;-85
2023/10/13 10:20:42;;;;;;;1.27;0.57;;;;;;;;;;4975409;28;20046;-86
2023/10/13 10:23:28;;;;;;;1.38;1.00;;;;;;;;;;4975170;28;20051;-88
2023/10/13 10:26:13;;;;;;;1.95;0.40;;;;;;;;;;4973534;28;20055;-85
2023/10/13 10:28:44;;;;;;;1.50;0.43;;;;;;;;;;4974217;28;20066;-85
2023/10/13 10:31:16;;;;;;;2.13;0.57;;;;;;;;;;4976111;28;20417;-86
2023/10/13 10:33:51;;;;;;;2.30;0.73;;;;;;;;;;4973950;28;20494;-83
2023/10/13 10:36:32;;;;;;;4.45;1.35;;;;;;;;;;4973419;28;20062;-82
2023/10/13 10:39:05;;;;;;;1.15;0.50;;;;;;;;;;4975226;28;20398;-83
2023/10/13 10:47:38;;;;;;;3.42;0.85;;;;;;;;;;4975247;28;20049;-81
2023/10/13 10:50:21;;;;;;;2.72;0.70;;;;;;;;;;4974308;28;20051;-81
2023/10/13 10:52:51;;;;;;;0.85;0.50;;;;;;;;;;4974971;28;20042;-80
2023/10/13 10:55:28;;;;;;;5.95;1.00;;;;;;;;;;4974802;28;20047;-80
2023/10/13 10:58:05;;;;;;;1.30;0.45;;;;;;;;;;4976180;28;20046;-81
2023/10/13 11:01:01;;;;;;;2.28;1.10;;;;;;;;;;4975908;28;20051;-83
2023/10/13 11:04:14;;;;;;;1.25;0.50;;;;;;;;;;4915913;29;20052;-82
2023/10/13 11:07:00;;;;;;;2.00;0.50;;;;;;;;;;4910573;29;20051;-81
2023/10/13 11:09:36;;;;;;;1.23;0.60;;;;;;;;;;4934040;29;20067;-82
2023/10/13 11:12:13;;;;;;;1.65;0.70;;;;;;;;;;4934229;29;20052;-83
2023/10/13 11:14:50;;;;;;;2.53;0.50;;;;;;;;;;4934055;29;20062;-82
2023/10/13 11:20:25;;;;;;;2.95;0.93;;;;;;;;;;4934179;29;20155;-82
2023/10/13 11:22:55;;;;;;;3.22;0.70;;;;;;;;;;4942181;28;20051;-84
2023/10/13 11:25:29;;;;;;;2.08;0.60;;;;;;;;;;4955496;28;20031;-82
2023/10/13 11:28:38;;;;;;;1.98;0.30;;;;;;;;;;4965035;28;20058;-82
2023/10/13 11:31:19;;;;;;;1.05;0.40;;;;;;;;;;4956353;28;20036;-82
2023/10/13 11:33:50;;;;;;;2.90;0.50;;;;;;;;;;4956160;28;20046;-83
2023/10/13 11:36:27;;;;;;;2.97;0.40;;;;;;;;;;4935397;29;20051;-82
2023/10/13 11:38:57;;;;;;;2.20;0.45;;;;;;;;;;4932012;28;20431;-82
2023/10/13 11:41:34;;;;;;;0.75;0.40;;;;;;;;;;4957775;28;20055;-84
2023/10/13 11:47:15;;;;;;;5.65;0.60;;;;;;;;;;4989440;28;20051;-83
2023/10/13 11:49:47;;;;;;;1.02;0.63;;;;;;;;;;4991292;28;20055;-82
2023/10/13 11:52:18;;;;;;;8.40;0.50;;;;;;;;;;4991436;28;20034;-81
2023/10/13 11:54:48;;;;;;;0.95;0.20;;;;;;;;;;4991393;28;20063;-81
2023/10/13 11:57:19;;;;;;;1.88;0.50;;;;;;;;;;4991952;28;20408;-82
2023/10/13 11:59:55;;;;;;;2.22;0.30;;;;;;;;;;4991873;28;20070;-81
2023/10/13 12:04:57;;;;;;;10.32;2.90;;;;;;;;;;4991078;28;20061;-80
2023/10/13 12:07:45;;;;;;;5.47;0.75;;;;;;;;;;5022322;28;20136;-82
2023/10/13 12:10:16;;;;;;;4.63;2.00;;;;;;;;;;4971798;28;20510;-82
2023/10/13 12:12:53;;;;;;;2.05;0.77;;;;;;;;;;4971701;28;20042;-82
2023/10/13 12:15:36;;;;;;;5.20;2.15;;;;;;;;;;4970236;28;20398;-83
2023/10/13 12:18:06;;;;;;;1.27;0.52;;;;;;;;;;4971651;28;20047;-82
2023/10/13 12:20:45;;;;;;;1.90;0.80;;;;;;;;;;4971759;28;20506;-81
2023/10/13 12:23:17;;;;;;;4.20;0.52;;;;;;;;;;4972041;28;20042;-82
2023/10/13 12:26:06;;;;;;;2.40;0.88;;;;;;;;;;4971265;28;20398;-82
2023/10/13 12:28:41;;;;;;;1.17;0.63;;;;;;;;;;4972818;28;20046;-82
2023/10/13 12:31:12;;;;;;;2.30;0.95;;;;;;;;;;4973603;28;20057;-81
2023/10/13 12:33:42;;;;;;;1.90;0.32;;;;;;;;;;4973255;28;20050;-82
2023/10/13 12:52:25;;;;;;;5.38;2.03;;;;;;;;;;4994059;28;20050;-83
2023/10/13 12:54:58;;;;;;;1.67;0.70;;;;;;;;;;4991790;28;20058;-83
2023/10/13 12:57:30;;;;;;;1.67;0.95;;;;;;;;;;4992476;28;20069;-82
2023/10/13 13:00:01;;;;;;;1.73;0.65;;;;;;;;;;4991178;28;20047;-81
2023/10/13 13:02:34;;;;;;;4.22;1.45;;;;;;;;;;4986710;28;20050;-82
2023/10/13 13:05:11;;;;;;;2.83;0.50;;;;;;;;;;4974477;28;20101;-83
2023/10/13 13:07:52;;;;;;;3.30;0.60;;;;;;;;;;4976205;28;20055;-81
2023/10/13 13:10:43;;;;;;;1.98;0.82;;;;;;;;;;4993902;28;20421;-82
2023/10/13 13:13:16;;;;;;;3.20;1.13;;;;;;;;;;4993641;28;20521;-82
2023/10/13 13:15:46;;;;;;;17.13;8.23;;;;;;;;;;4992266;28;20053;-83
2023/10/13 13:18:16;;;;;;;11.63;6.57;;;;;;;;;;4993166;28;20066;-83
2023/10/13 13:20:55;;;;;;;4.25;1.70;;;;;;;;;;4993327;28;20061;-81
2023/10/13 13:23:26;;;;;;;12.57;6.22;;;;;;;;;;4993541;28;20058;-83
2023/10/13 13:25:57;;;;;;;13.00;7.10;;;;;;;;;;4992142;28;20413;-82
2023/10/13 13:28:37;;;;;;;3.58;0.60;;;;;;;;;;4993358;28;20058;-82
2023/10/13 13:31:08;;;;;;;10.45;6.20;;;;;;;;;;4992413;28;20523;-85
2023/10/13 13:33:43;;;;;;;5.95;2.47;;;;;;;;;;4992728;28;20535;-82
2023/10/13 13:36:16;;;;;;;2.67;0.88;;;;;;;;;;4991276;28;20047;-85
2023/10/13 13:38:48;;;;;;;2.03;0.85;;;;;;;;;;4992376;28;20062;-83
2023/10/13 13:41:19;;;;;;;2.83;1.00;;;;;;;;;;4993514;28;20405;-82
2023/10/13 13:46:27;;;;;;;2.63;0.88;;;;;;;;;;4992828;28;20050;-83
2023/10/13 13:49:06;;;;;;;3.17;0.80;;;;;;;;;;4992998;28;20063;-82
2023/10/13 13:51:37;;;;;;;2.38;1.17;;;;;;;;;;4992720;28;20350;-86
2023/10/13 13:54:08;;;;;;;1.42;0.70;;;;;;;;;;4992460;28;20073;-84
2023/10/13 13:56:38;;;;;;;1.77;0.60;;;;;;;;;;4993041;28;20046;-82
2023/10/13 13:59:09;;;;;;;4.03;0.80;;;;;;;;;;4992370;28;20058;-83
2023/10/13 14:01:40;;;;;;;3.42;1.70;;;;;;;;;;4992714;28;20161;-85
2023/10/13 14:04:11;;;;;;;9.77;2.92;;;;;;;;;;4992540;28;20589;-83
2023/10/13 14:06:44;;;;;;;1.98;1.10;;;;;;;;;;4992626;28;20073;-83
2023/10/13 14:09:40;;;;;;;2.95;1.42;;;;;;;;;;4986424;28;20046;-85
2023/10/13 14:14:56;;;;;;;3.95;0.90;;;;;;;;;;4993659;28;20050;-84
2023/10/13 14:17:29;;;;;;;1.65;0.55;;;;;;;;;;4994368;28;20054;-81
2023/10/13 14:20:00;;;;;;;3.17;1.35;;;;;;;;;;4994009;28;20053;-84
2023/10/13 14:22:36;;;;;;;3.95;1.10;;;;;;;;;;4992646;28;20053;-82
2023/10/13 14:25:09;;;;;;;1.60;0.80;;;;;;;;;;4993931;28;20042;-83
2023/10/13 14:27:39;;;;;;;2.95;0.95;;;;;;;;;;4993871;28;20046;-85
2023/10/13 14:30:09;;;;;;;2.47;0.77;;;;;;;;;;4994116;28;20046;-83
2023/10/13 14:32:42;;;;;;;5.05;0.93;;;;;;;;;;4994172;28;20050;-83
2023/10/13 14:35:15;;;;;;;1.48;0.77;;;;;;;;;;4974896;28;20054;-82
2023/10/13 14:37:46;;;;;;;1.60;0.80;;;;;;;;;;4972477;28;20055;-82
2023/10/13 14:40:21;;;;;;;1.38;0.80;;;;;;;;;;4972924;28;20062;-84
2023/10/13 14:42:51;;;;;;;1.80;0.90;;;;;;;;;;4974534;28;20062;-82
2023/10/13 14:45:21;;;;;;;2.47;0.90;;;;;;;;;;4973321;28;20520;-83
2023/10/13 14:47:52;;;;;;;2.80;0.70;;;;;;;;;;4974851;28;20047;-82
2023/10/13 14:50:24;;;;;;;3.92;0.80;;;;;;;;;;4977176;28;20061;-83
2023/10/13 14:52:54;;;;;;;3.15;0.82;;;;;;;;;;4994025;28;20042;-82
2023/10/13 14:55:37;;;;;;;4.63;1.00;;;;;;;;;;4993641;28;20156;-85
2023/10/13 14:58:08;;;;;;;1.42;1.15;;;;;;;;;;4992425;28;20513;-82
2023/10/13 15:00:38;;;;;;;3.42;0.93;;;;;;;;;;4992294;28;20497;-83
2023/10/13 15:03:08;;;;;;;1.13;0.50;;;;;;;;;;4993467;28;20046;-84
2023/10/13 15:05:39;;;;;;;2.33;1.00;;;;;;;;;;4979986;28;20408;-86
2023/10/13 15:08:10;;;;;;;2.28;0.65;;;;;;;;;;4973333;28;20485;-85
2023/10/13 15:10:42;;;;;;;3.45;1.33;;;;;;;;;;4975056;28;20046;-84
2023/10/13 15:13:13;;;;;;;3.03;0.80;;;;;;;;;;4972575;28;20123;-83
2023/10/13 15:15:43;;;;;;;3.15;0.63;;;;;;;;;;4972272;28;20066;-83
2023/10/13 15:18:13;;;;;;;0.85;0.50;;;;;;;;;;4973568;28;20054;-83
2023/10/13 15:20:45;;;;;;;1.83;1.00;;;;;;;;;;4974781;28;20043;-82
2023/10/13 15:23:22;;;;;;;4.13;1.40;;;;;;;;;;4974986;28;20051;-82
2023/10/13 15:25:54;;;;;;;1.60;0.73;;;;;;;;;;4974146;28;20055;-83
2023/10/13 15:28:30;;;;;;;2.78;1.20;;;;;;;;;;4980994;28;20378;-84
2023/10/13 15:31:10;;;;;;;1.65;0.60;;;;;;;;;;4995646;28;20042;-83
2023/10/13 15:33:43;;;;;;;1.40;0.70;;;;;;;;;;4994444;28;20054;-82
2023/10/13 15:36:14;;;;;;;1.27;0.73;;;;;;;;;;4995721;28;20054;-82
2023/10/13 15:38:46;;;;;;;1.02;0.52;;;;;;;;;;4994347;28;20042;-81
2023/10/13 15:41:25;;;;;;;1.65;1.00;;;;;;;;;;4991477;28;20429;-81
2023/10/13 15:43:56;;;;;;;1.20;0.63;;;;;;;;;;4995302;28;20506;-82
2023/10/13 15:46:35;;;;;;;1.45;0.80;;;;;;;;;;4996670;28;20046;-83
2023/10/13 15:49:35;;;;;;;3.47;1.00;;;;;;;;;;4983403;28;20058;-83
2023/10/13 15:52:15;;;;;;;3.85;0.90;;;;;;;;;;5013528;28;20069;-82
2023/10/13 15:54:49;;;;;;;3.92;0.90;;;;;;;;;;5015093;28;20026;-83
2023/10/13 15:57:20;;;;;;;1.77;0.80;;;;;;;;;;5014034;28;20030;-84
2023/10/13 15:59:50;;;;;;;1.65;0.82;;;;;;;;;;5014344;28;20042;-84
2023/10/13 16:02:23;;;;;;;3.35;0.90;;;;;;;;;;4996746;28;20061;-82
2023/10/13 16:04:59;;;;;;;1.98;0.70;;;;;;;;;;5011733;28;20045;-84
2023/10/13 16:07:29;;;;;;;1.85;0.60;;;;;;;;;;5000944;28;20073;-84
2023/10/13 16:10:11;;;;;;;1.90;1.00;;;;;;;;;;4997414;28;20046;-85
2023/10/13 16:12:44;;;;;;;2.28;1.10;;;;;;;;;;4996600;28;20042;-83
2023/10/13 16:15:15;;;;;;;3.50;1.00;;;;;;;;;;4996583;28;20505;-83
2023/10/13 16:17:45;;;;;;;2.47;0.90;;;;;;;;;;4994546;28;20057;-84
2023/10/13 16:20:16;;;;;;;3.55;1.00;;;;;;;;;;4995432;28;20046;-82
2023/10/13 16:22:47;;;;;;;1.40;0.77;;;;;;;;;;4996531;28;20415;-85
2023/10/13 16:25:17;;;;;;;2.10;1.08;;;;;;;;;;4997273;28;20440;-84
2023/10/13 16:27:49;;;;;;;3.35;0.80;;;;;;;;;;4995726;28;20042;-82
2023/10/13 16:30:19;;;;;;;4.35;1.00;;;;;;;;;;4996002;28;20050;-82
2023/10/13 16:32:49;;;;;;;2.05;0.90;;;;;;;;;;4995138;28;20050;-84
2023/10/13 16:35:19;;;;;;;2.75;1.10;;;;;;;;;;4994803;28;20061;-84
2023/10/13 16:37:52;;;;;;;1.65;0.70;;;;;;;;;;4996191;28;20057;-87
2023/10/13 16:40:23;;;;;;;2.70;1.00;;;;;;;;;;4996605;28;20065;-84
2023/10/13 16:42:54;;;;;;;2.22;1.30;;;;;;;;;;4994947;28;20050;-85
2023/10/13 16:45:25;;;;;;;3.30;1.20;;;;;;;;;;4990513;28;20053;-82
2023/10/13 16:47:55;;;;;;;2.40;0.80;;;;;;;;;;4996069;28;20042;-82
2023/10/13 16:50:26;;;;;;;1.13;0.80;;;;;;;;;;4995843;28;20050;-83
2023/10/13 16:52:56;;;;;;;1.75;0.70;;;;;;;;;;4995946;28;20061;-83
2023/10/13 16:55:28;;;;;;;2.60;0.70;;;;;;;;;;4995418;28;20085;-83
2023/10/13 16:57:58;;;;;;;2.97;0.70;;;;;;;;;;4995449;28;20156;-84
2023/10/13 17:00:29;;;;;;;1.70;0.70;;;;;;;;;;4994348;28;20054;-85
2023/10/13 17:02:59;;;;;;;3.00;1.00;;;;;;;;;;4995909;28;20038;-86
2023/10/13 17:05:30;;;;;;;2.05;0.70;;;;;;;;;;4995558;28;20508;-84
2023/10/13 17:08:00;;;;;;;1.92;0.70;;;;;;;;;;4994896;28;20050;-84
2023/10/13 17:10:31;;;;;;;2.78;0.88;;;;;;;;;;4996166;28;20506;-87
2023/10/13 17:13:06;;;;;;;1.52;0.63;;;;;;;;;;5009943;28;20046;-85
2023/10/13 17:15:37;;;;;;;1.50;0.90;;;;;;;;;;4995523;28;20420;-83
2023/10/13 17:18:07;;;;;;;1.25;0.60;;;;;;;;;;4995325;28;20046;-84
2023/10/13 17:20:39;;;;;;;1.58;0.90;;;;;;;;;;4994445;28;20061;-85
2023/10/13 17:23:11;;;;;;;2.28;0.80;;;;;;;;;;4994297;28;20046;-84
2023/10/13 17:25:41;;;;;;;1.60;0.70;;;;;;;;;;4995709;28;20046;-84
2023/10/13 17:28:14;;;;;;;2.53;0.90;;;;;;;;;;4995376;28;20038;-85
2023/10/13 17:30:49;;;;;;;1.35;0.70;;;;;;;;;;4993103;28;20500;-85
2023/10/13 17:33:20;;;;;;;1.60;0.80;;;;;;;;;;4995496;28;20050;-85
2023/10/13 17:35:52;;;;;;;2.25;0.82;;;;;;;;;;4993363;28;20046;-86
2023/10/13 17:38:24;;;;;;;1.70;0.60;;;;;;;;;;4993313;28;20055;-85
2023/10/13 17:40:54;;;;;;;2.92;0.73;;;;;;;;;;4993470;28;20054;-86
2023/10/13 17:43:24;;;;;;;1.63;0.80;;;;;;;;;;4994870;28;20057;-84
2023/10/13 17:45:54;;;;;;;1.80;0.63;;;;;;;;;;4994688;28;20051;-86
2023/10/13 17:48:24;;;;;;;1.40;0.80;;;;;;;;;;4993166;28;20054;-83
2023/10/13 17:50:56;;;;;;;1.88;0.90;;;;;;;;;;4994615;28;20046;-83
2023/10/13 17:53:34;;;;;;;2.47;1.63;;;;;;;;;;4992356;28;20516;-85
2023/10/13 17:56:12;;;;;;;1.60;0.85;;;;;;;;;;4995032;28;20046;-86
2023/10/13 17:58:43;;;;;;;1.85;0.77;;;;;;;;;;4994866;28;20062;-85
2023/10/13 18:01:17;;;;;;;1.48;0.77;;;;;;;;;;4993748;28;20053;-86
2023/10/13 18:03:51;;;;;;;2.10;0.60;;;;;;;;;;4996012;28;20047;-83
2023/10/13 18:06:23;;;;;;;1.85;0.80;;;;;;;;;;5000018;28;20153;-84
2023/10/13 18:08:57;;;;;;;3.50;0.80;;;;;;;;;;4997707;28;20053;-84
2023/10/13 18:11:30;;;;;;;3.20;1.10;;;;;;;;;;4996192;28;20051;-82
2023/10/13 18:14:00;;;;;;;1.92;0.60;;;;;;;;;;5011179;28;20050;-84
2023/10/13 18:16:30;;;;;;;1.40;0.63;;;;;;;;;;4993762;28;20061;-84
2023/10/13 18:19:01;;;;;;;2.10;0.70;;;;;;;;;;4994244;28;20066;-85
2023/10/13 18:21:31;;;;;;;1.92;0.90;;;;;;;;;;4998308;28;20065;-83
2023/10/13 18:24:01;;;;;;;3.05;0.80;;;;;;;;;;4993871;28;20061;-86
2023/10/13 18:26:31;;;;;;;1.98;0.98;;;;;;;;;;4993805;28;20062;-84
2023/10/13 18:29:01;;;;;;;2.08;0.82;;;;;;;;;;4993833;28;20449;-84
2023/10/13 18:31:31;;;;;;;2.28;0.75;;;;;;;;;;4993946;28;20053;-86